Time;durP1;ratioP1;P1;durP2;ratioP2;P2;SDS_P1;SDS_P2;PMS_P1;PMS_P2;Temp;Humidity;BMP_temperature;BMP_pressure;BME280_temperature;BME280_humidity;BME280_pressure;Samples;Min_cycle;Max_cycle;Signal;HPM_P1;HPM_P2
2024/02/27 00:01:49;;;;;;;5.88;2.95;;;4.50;99.90;;;;;;5032642;28;20440;-52
2024/02/27 00:04:14;;;;;;;5.90;2.95;;;4.50;99.90;;;;;;5052055;28;20049;-55
2024/02/27 00:06:40;;;;;;;5.25;3.08;;;4.40;99.90;;;;;;5052477;28;20446;-55
2024/02/27 00:09:08;;;;;;;6.70;3.10;;;4.40;99.90;;;;;;5037531;28;20029;-55
2024/02/27 00:11:34;;;;;;;6.03;3.22;;;4.40;99.90;;;;;;5032667;28;20071;-46
2024/02/27 00:14:00;;;;;;;6.18;2.88;;;4.40;99.90;;;;;;5036577;28;20393;-41
2024/02/27 00:16:26;;;;;;;5.38;3.40;;;4.50;99.90;;;;;;5038993;28;20029;-40
2024/02/27 00:18:52;;;;;;;7.53;3.28;;;4.40;99.90;;;;;;5036286;28;20082;-41
2024/02/27 00:21:17;;;;;;;11.90;3.78;;;4.40;99.90;;;;;;5051489;28;20396;-40
2024/02/27 00:23:43;;;;;;;6.45;2.72;;;4.40;99.90;;;;;;5044607;28;20032;-40
2024/02/27 00:26:09;;;;;;;6.95;3.30;;;4.40;99.90;;;;;;5044847;28;20409;-40
2024/02/27 00:28:34;;;;;;;4.65;2.85;;;4.40;99.90;;;;;;5050018;28;20028;-42
2024/02/27 00:31:00;;;;;;;4.50;2.55;;;4.40;99.90;;;;;;5036072;28;20556;-39
2024/02/27 00:33:26;;;;;;;12.32;2.80;;;4.40;99.90;;;;;;5036631;28;20116;-41
2024/02/27 00:35:52;;;;;;;9.40;2.80;;;4.40;99.90;;;;;;5036019;28;20087;-39
2024/02/27 00:38:18;;;;;;;4.65;2.60;;;4.40;99.90;;;;;;5036052;28;20030;-42
2024/02/27 00:40:44;;;;;;;3.80;2.90;;;4.40;99.90;;;;;;5034523;28;20490;-42
2024/02/27 00:43:10;;;;;;;7.55;3.35;;;4.30;99.90;;;;;;5035777;28;20465;-41
2024/02/27 00:45:36;;;;;;;6.43;2.70;;;4.30;99.90;;;;;;5054697;28;20047;-41
2024/02/27 00:48:01;;;;;;;14.45;2.67;;;4.30;99.90;;;;;;5035831;28;20013;-41
2024/02/27 00:50:29;;;;;;;4.63;3.10;;;4.20;99.90;;;;;;5036337;28;20018;-40
2024/02/27 00:52:55;;;;;;;3.50;2.60;;;4.20;99.90;;;;;;5035763;28;20061;-42
2024/02/27 00:55:20;;;;;;;4.50;2.38;;;4.30;99.90;;;;;;5036066;28;20040;-43
2024/02/27 00:57:46;;;;;;;7.03;3.20;;;4.20;99.90;;;;;;5035368;28;20397;-41
2024/02/27 01:00:13;;;;;;;8.73;3.53;;;4.20;99.90;;;;;;5035627;28;20025;-43
2024/02/27 01:02:41;;;;;;;5.70;3.28;;;4.20;99.90;;;;;;5034455;28;20435;-40
2024/02/27 01:05:07;;;;;;;;;;;4.20;99.90;;;;;;5036216;28;20495;-55
2024/02/27 01:07:33;;;;;;;4.53;2.70;;;4.20;99.90;;;;;;5050048;28;19912;-53
2024/02/27 01:09:59;;;;;;;5.10;3.05;;;4.20;99.90;;;;;;5035243;28;20028;-56
2024/02/27 01:12:25;;;;;;;4.40;2.72;;;4.20;99.90;;;;;;5035443;28;20026;-55
2024/02/27 01:14:51;;;;;;;6.57;2.65;;;4.20;99.90;;;;;;5035287;28;20398;-55
2024/02/27 01:17:17;;;;;;;4.75;2.72;;;4.20;99.90;;;;;;5036306;28;20175;-52
2024/02/27 01:19:42;;;;;;;4.95;2.85;;;4.20;99.90;;;;;;5045367;28;20021;-57
2024/02/27 01:22:08;;;;;;;3.33;2.45;;;4.20;99.90;;;;;;5049524;28;20070;-52
2024/02/27 01:24:34;;;;;;;5.55;2.50;;;4.20;99.90;;;;;;5037120;28;20037;-53
2024/02/27 01:27:00;;;;;;;5.50;2.67;;;4.10;99.90;;;;;;5034991;28;20045;-56
2024/02/27 01:29:26;;;;;;;6.45;2.50;;;4.00;99.90;;;;;;5035132;28;20017;-54
2024/02/27 01:31:52;;;;;;;4.25;2.40;;;4.10;99.90;;;;;;5034767;28;20026;-54
2024/02/27 01:34:18;;;;;;;7.55;3.40;;;4.10;99.90;;;;;;5039965;28;20036;-51
2024/02/27 01:36:45;;;;;;;6.50;2.70;;;4.10;99.90;;;;;;5034975;28;20454;-53
2024/02/27 01:39:10;;;;;;;5.45;2.30;;;4.00;99.90;;;;;;5035213;28;20504;-54
2024/02/27 01:41:38;;;;;;;10.43;4.25;;;4.00;99.90;;;;;;5044857;28;20033;-54
2024/02/27 01:44:36;;;;;;;4.35;2.42;;;4.00;99.90;;;;;;5054977;28;20488;-54
2024/02/27 01:47:01;;;;;;;;;;;4.00;99.90;;;;;;5043132;28;20025;-54
2024/02/27 01:49:28;;;;;;;10.18;2.03;;;4.00;99.90;;;;;;5034686;28;19905;-55
2024/02/27 01:51:54;;;;;;;4.38;2.50;;;4.00;99.90;;;;;;5034857;28;20490;-54
2024/02/27 01:54:26;;;;;;;5.45;2.53;;;4.00;99.90;;;;;;5034718;28;20025;-55
2024/02/27 01:56:53;;;;;;;5.53;2.65;;;3.90;99.90;;;;;;5033639;28;20492;-55
2024/02/27 01:59:24;;;;;;;4.28;2.85;;;4.00;99.90;;;;;;5035201;28;20105;-54
2024/02/27 02:01:51;;;;;;;4.32;2.70;;;4.00;99.90;;;;;;5048856;28;20028;-55
2024/02/27 02:04:18;;;;;;;4.18;2.85;;;3.90;99.90;;;;;;5053976;28;20025;-57
2024/02/27 02:06:45;;;;;;;6.25;2.65;;;3.80;99.90;;;;;;5041394;28;20021;-55
2024/02/27 02:09:11;;;;;;;7.78;2.80;;;3.90;99.90;;;;;;5034572;28;20029;-54
2024/02/27 02:11:38;;;;;;;3.05;2.50;;;3.90;99.90;;;;;;5048534;28;20048;-55
2024/02/27 02:14:04;;;;;;;7.43;3.00;;;3.90;99.90;;;;;;5054539;28;20086;-54
2024/02/27 02:16:30;;;;;;;3.90;2.60;;;3.90;99.90;;;;;;5043623;28;20055;-55
2024/02/27 02:18:56;;;;;;;6.88;2.42;;;4.00;99.90;;;;;;5034315;28;20444;-54
2024/02/27 02:21:22;;;;;;;5.80;2.38;;;4.00;99.90;;;;;;5034247;28;20017;-54
2024/02/27 02:23:47;;;;;;;7.45;2.67;;;3.90;99.90;;;;;;5046167;28;20448;-57
2024/02/27 02:26:13;;;;;;;7.78;2.65;;;3.90;99.90;;;;;;5045131;28;20045;-54
2024/02/27 02:28:40;;;;;;;7.05;2.38;;;3.90;99.90;;;;;;5034066;28;20103;-55
2024/02/27 02:31:05;;;;;;;4.32;2.75;;;3.90;99.90;;;;;;5034976;28;20502;-44
2024/02/27 02:33:31;;;;;;;6.80;3.15;;;3.90;99.90;;;;;;5032684;28;20026;-42
2024/02/27 02:35:57;;;;;;;4.47;2.75;;;3.90;99.90;;;;;;5045714;28;20115;-42
2024/02/27 02:38:22;;;;;;;9.02;2.63;;;3.90;99.90;;;;;;5033828;28;20034;-44
2024/02/27 02:40:48;;;;;;;4.43;2.38;;;3.90;99.90;;;;;;5042576;28;20032;-41
2024/02/27 02:43:14;;;;;;;7.82;2.83;;;3.80;99.90;;;;;;5053595;28;20379;-40
2024/02/27 02:45:41;;;;;;;5.40;2.50;;;3.80;99.90;;;;;;5046909;28;20021;-43
2024/02/27 02:48:07;;;;;;;4.78;2.72;;;3.80;99.90;;;;;;5051361;28;20602;-40
2024/02/27 02:50:32;;;;;;;2.95;2.20;;;3.80;99.90;;;;;;5052632;28;20064;-41
2024/02/27 02:52:58;;;;;;;4.55;2.28;;;3.80;99.90;;;;;;5048762;28;20490;-39
2024/02/27 02:55:24;;;;;;;5.45;2.47;;;3.80;99.90;;;;;;5053244;28;20028;-40
2024/02/27 02:57:50;;;;;;;5.38;2.67;;;3.80;99.90;;;;;;5052116;28;20473;-40
2024/02/27 03:00:16;;;;;;;7.65;2.45;;;3.80;99.90;;;;;;5035719;28;20039;-42
2024/02/27 03:02:42;;;;;;;5.32;2.67;;;3.90;99.90;;;;;;5033170;28;20060;-47
2024/02/27 03:05:12;;;;;;;3.58;2.35;;;3.90;99.90;;;;;;5033302;28;20057;-41
2024/02/27 03:07:41;;;;;;;4.10;2.38;;;3.90;99.90;;;;;;5034398;28;20037;-41
2024/02/27 03:10:08;;;;;;;8.52;2.50;;;3.90;99.90;;;;;;5037319;28;20048;-45
2024/02/27 03:12:36;;;;;;;4.07;2.17;;;3.90;99.90;;;;;;5052928;28;20496;-42
2024/02/27 03:15:03;;;;;;;;;;;3.90;99.90;;;;;;5053509;28;20632;-42
2024/02/27 03:17:29;;;;;;;11.18;3.42;;;3.80;99.90;;;;;;5051383;28;20075;-45
2024/02/27 03:19:55;;;;;;;5.57;2.75;;;3.80;99.90;;;;;;5049426;28;20121;-42
2024/02/27 03:22:20;;;;;;;8.30;2.65;;;3.80;99.90;;;;;;5033232;28;20432;-41
2024/02/27 03:24:46;;;;;;;6.35;2.13;;;3.70;99.90;;;;;;5048961;28;20485;-40
2024/02/27 03:27:12;;;;;;;6.32;2.83;;;3.80;99.90;;;;;;5036474;28;20131;-40
2024/02/27 03:29:38;;;;;;;4.25;2.30;;;3.80;99.90;;;;;;5033080;28;20020;-43
2024/02/27 03:32:04;;;;;;;4.45;2.38;;;3.80;99.90;;;;;;5033170;28;20025;-43
2024/02/27 03:34:29;;;;;;;4.63;2.35;;;3.80;99.90;;;;;;5032828;28;20100;-41
2024/02/27 03:36:55;;;;;;;8.75;3.47;;;3.80;99.90;;;;;;5033702;28;20498;-40
2024/02/27 03:39:21;;;;;;;5.25;2.53;;;3.80;99.90;;;;;;5033063;28;20021;-42
2024/02/27 03:41:46;;;;;;;9.75;3.30;;;3.80;99.90;;;;;;5050559;28;20040;-56
2024/02/27 03:44:12;;;;;;;9.80;3.13;;;3.80;99.90;;;;;;5052603;28;20039;-54
2024/02/27 03:46:38;;;;;;;5.07;3.03;;;3.80;99.90;;;;;;5049213;28;20107;-62
2024/02/27 03:49:03;;;;;;;5.05;3.13;;;3.70;99.90;;;;;;5052796;28;20021;-56
2024/02/27 03:51:29;;;;;;;6.07;3.58;;;3.80;99.90;;;;;;5051713;28;20050;-55
2024/02/27 03:53:54;;;;;;;6.55;3.13;;;3.70;99.90;;;;;;5050391;28;20033;-55
2024/02/27 03:56:20;;;;;;;10.27;3.17;;;3.80;99.90;;;;;;5052568;28;20474;-56
2024/02/27 03:58:48;;;;;;;10.15;3.15;;;3.80;99.90;;;;;;5036201;28;20014;-54
2024/02/27 04:01:17;;;;;;;6.82;3.15;;;3.80;99.90;;;;;;5032511;28;20037;-54
2024/02/27 04:03:44;;;;;;;8.13;3.30;;;3.70;99.90;;;;;;5032773;28;20386;-56
2024/02/27 04:06:11;;;;;;;6.10;3.22;;;3.70;99.90;;;;;;5032871;28;20024;-54
2024/02/27 04:08:37;;;;;;;6.27;3.00;;;3.70;99.90;;;;;;5046442;28;20072;-54
2024/02/27 04:11:04;;;;;;;5.10;3.42;;;3.70;99.90;;;;;;5035567;28;20037;-55
2024/02/27 04:13:29;;;;;;;6.97;2.55;;;3.70;99.90;;;;;;5032762;28;20482;-55
2024/02/27 04:15:55;;;;;;;6.60;3.25;;;3.70;99.90;;;;;;5033254;28;20025;-55
2024/02/27 04:18:21;;;;;;;4.93;3.25;;;3.70;99.90;;;;;;5032499;28;20508;-56
2024/02/27 04:20:47;;;;;;;5.80;2.75;;;3.70;99.90;;;;;;5032387;28;20018;-54
2024/02/27 04:23:13;;;;;;;10.75;3.30;;;3.70;99.90;;;;;;5032243;28;20037;-54
2024/02/27 04:25:38;;;;;;;8.68;3.85;;;3.70;99.90;;;;;;5034898;28;20013;-54
2024/02/27 04:28:04;;;;;;;6.60;3.03;;;3.70;99.90;;;;;;5052350;28;20513;-55
2024/02/27 04:30:31;;;;;;;7.68;3.97;;;3.70;99.90;;;;;;5051726;28;20021;-55
2024/02/27 04:32:57;;;;;;;10.00;3.72;;;3.70;99.90;;;;;;5050461;28;20481;-55
2024/02/27 04:35:23;;;;;;;7.55;3.50;;;3.70;99.90;;;;;;5052183;28;20079;-55
2024/02/27 04:37:49;;;;;;;8.25;2.53;;;3.60;99.90;;;;;;5050866;28;20029;-54
2024/02/27 04:40:15;;;;;;;7.13;3.65;;;3.60;99.90;;;;;;5052112;28;20547;-40
2024/02/27 04:42:40;;;;;;;7.10;3.75;;;3.60;99.90;;;;;;5033516;28;20172;-54
2024/02/27 04:45:07;;;;;;;9.98;2.97;;;3.60;99.90;;;;;;5032245;28;20033;-55
2024/02/27 04:47:32;;;;;;;7.22;3.67;;;3.60;99.90;;;;;;5033178;28;20100;-54
2024/02/27 04:49:58;;;;;;;14.32;4.93;;;3.60;99.90;;;;;;5033409;28;20423;-42
2024/02/27 04:52:24;;;;;;;7.32;2.80;;;3.60;99.90;;;;;;5032274;28;20021;-58
2024/02/27 04:54:50;;;;;;;11.48;3.85;;;3.60;99.90;;;;;;5032092;28;20424;-57
2024/02/27 04:57:15;;;;;;;17.77;4.10;;;3.60;99.90;;;;;;5033517;28;20021;-55
2024/02/27 04:59:41;;;;;;;8.75;3.63;;;3.60;99.90;;;;;;5034375;28;20056;-58
2024/02/27 05:02:07;;;;;;;15.80;3.80;;;3.60;99.90;;;;;;5035720;28;20404;-56
2024/02/27 05:04:32;;;;;;;13.80;3.80;;;3.60;99.90;;;;;;5035604;28;20028;-52
2024/02/27 05:06:58;;;;;;;8.43;3.90;;;3.60;99.90;;;;;;5036190;28;20032;-55
2024/02/27 05:09:24;;;;;;;10.35;4.30;;;3.60;99.90;;;;;;5039649;28;20390;-54
2024/02/27 05:11:50;;;;;;;10.00;2.97;;;3.70;99.90;;;;;;5055710;28;20106;-55
2024/02/27 05:14:16;;;;;;;14.30;3.97;;;3.70;99.90;;;;;;5055391;28;20025;-52
2024/02/27 05:16:41;;;;;;;14.20;3.42;;;3.70;99.90;;;;;;5053612;28;20037;-55
2024/02/27 05:19:09;;;;;;;7.97;3.97;;;3.60;99.90;;;;;;5055284;28;20021;-55
2024/02/27 05:21:35;;;;;;;10.15;3.97;;;3.60;99.90;;;;;;5055568;28;20385;-55
2024/02/27 05:24:00;;;;;;;10.20;4.65;;;3.60;99.90;;;;;;5040229;28;20021;-55
2024/02/27 05:26:26;;;;;;;9.50;3.90;;;3.60;99.90;;;;;;5035065;28;20069;-54
2024/02/27 05:28:52;;;;;;;21.90;4.90;;;3.70;99.90;;;;;;5035474;28;20365;-55
2024/02/27 05:31:30;;;;;;;9.95;4.20;;;3.60;99.90;;;;;;5035085;28;20052;-55
2024/02/27 05:33:58;;;;;;;11.52;4.70;;;3.70;99.90;;;;;;5054632;28;20453;-54
2024/02/27 05:36:24;;;;;;;;;;;3.60;99.90;;;;;;5053704;28;20481;-53
2024/02/27 05:38:50;;;;;;;9.52;3.88;;;3.70;99.90;;;;;;5053054;28;20292;-61
2024/02/27 05:41:17;;;;;;;12.30;4.38;;;3.70;99.90;;;;;;5034929;28;20492;-52
2024/02/27 05:43:43;;;;;;;10.23;4.82;;;3.70;99.90;;;;;;5033545;28;20048;-55
2024/02/27 05:46:09;;;;;;;10.63;4.95;;;3.70;99.90;;;;;;5035592;28;20037;-54
2024/02/27 05:48:39;;;;;;;15.85;4.65;;;3.60;99.90;;;;;;5035527;28;20025;-55
2024/02/27 05:51:06;;;;;;;12.57;4.63;;;3.60;99.90;;;;;;5035109;28;20018;-56
2024/02/27 05:53:35;;;;;;;14.40;5.05;;;3.60;99.90;;;;;;5035076;28;20497;-55
2024/02/27 05:56:01;;;;;;;9.48;4.45;;;3.50;99.90;;;;;;5035927;28;20018;-53
2024/02/27 05:58:27;;;;;;;15.43;5.13;;;3.50;99.90;;;;;;5052888;28;20111;-55
2024/02/27 06:00:54;;;;;;;11.85;4.65;;;3.50;99.90;;;;;;5054578;28;20392;-54
2024/02/27 06:03:23;;;;;;;10.68;3.97;;;3.50;99.90;;;;;;5035660;28;20489;-39
2024/02/27 06:05:50;;;;;;;9.85;4.53;;;3.50;99.90;;;;;;5034425;28;20485;-39
2024/02/27 06:08:16;;;;;;;8.82;4.57;;;3.50;99.90;;;;;;5033860;28;20537;-57
2024/02/27 06:10:42;;;;;;;9.45;4.80;;;3.50;99.90;;;;;;5050917;28;20021;-59
2024/02/27 06:13:09;;;;;;;7.68;4.43;;;3.50;99.90;;;;;;5051267;28;20116;-56
2024/02/27 06:15:34;;;;;;;10.05;5.05;;;3.50;99.90;;;;;;5050351;28;20547;-54
2024/02/27 06:18:00;;;;;;;11.80;4.70;;;3.50;99.90;;;;;;5040330;28;20037;-49
2024/02/27 06:23:10;;;;;;;9.38;3.67;;;3.50;99.90;;;;;;5041389;28;20112;-52
2024/02/27 06:25:36;;;;;;;6.95;3.95;;;3.50;99.90;;;;;;5053312;28;20056;-54
2024/02/27 06:28:02;;;;;;;23.15;4.95;;;3.40;99.90;;;;;;5052148;28;20024;-54
2024/02/27 06:30:28;;;;;;;12.80;4.50;;;3.50;99.90;;;;;;5053352;28;20033;-55
2024/02/27 06:32:53;;;;;;;12.65;4.38;;;3.50;99.90;;;;;;5042809;28;20482;-55
2024/02/27 06:35:19;;;;;;;12.98;4.93;;;3.50;99.90;;;;;;5034193;28;20033;-54
2024/02/27 06:37:45;;;;;;;12.88;4.55;;;3.50;99.90;;;;;;5049622;28;20025;-55
2024/02/27 06:40:11;;;;;;;10.57;4.38;;;3.40;99.90;;;;;;5053657;28;20040;-52
2024/02/27 06:42:37;;;;;;;11.52;5.03;;;3.50;99.90;;;;;;5049147;28;20367;-55
2024/02/27 06:45:06;;;;;;;10.48;4.80;;;3.50;99.90;;;;;;5053303;28;20033;-55
2024/02/27 06:47:32;;;;;;;10.82;4.93;;;3.40;99.90;;;;;;5048670;28;20021;-54
2024/02/27 06:49:58;;;;;;;9.80;4.43;;;3.40;99.90;;;;;;5033556;28;20032;-55
2024/02/27 06:52:25;;;;;;;11.15;4.85;;;3.40;99.90;;;;;;5050151;28;20044;-54
2024/02/27 06:54:52;;;;;;;14.02;5.53;;;3.50;99.90;;;;;;5053681;28;20493;-55
2024/02/27 06:57:17;;;;;;;13.82;5.28;;;3.50;99.90;;;;;;5053653;28;20025;-54
2024/02/27 06:59:43;;;;;;;11.65;5.53;;;3.50;99.90;;;;;;5053386;28;20037;-53
2024/02/27 07:02:09;;;;;;;13.57;4.97;;;3.50;99.90;;;;;;5051899;28;20507;-53
2024/02/27 07:04:34;;;;;;;11.75;5.20;;;3.60;99.90;;;;;;5051166;28;20397;-53
2024/02/27 07:07:02;;;;;;;15.38;5.78;;;3.60;99.90;;;;;;5053470;28;20032;-54
2024/02/27 07:09:28;;;;;;;14.20;4.27;;;3.60;99.90;;;;;;5048006;28;20436;-55
2024/02/27 07:11:54;;;;;;;13.23;4.43;;;3.60;99.90;;;;;;5039262;28;20021;-40
2024/02/27 07:14:20;;;;;;;13.55;4.45;;;3.70;99.90;;;;;;5033127;28;20025;-39
2024/02/27 07:16:45;;;;;;;10.52;5.38;;;3.80;99.90;;;;;;5033698;28;20030;-39
2024/02/27 07:19:11;;;;;;;12.05;4.95;;;3.80;99.90;;;;;;5040869;28;20117;-39
2024/02/27 07:21:37;;;;;;;13.80;5.22;;;3.80;99.90;;;;;;5051780;28;20421;-39
2024/02/27 07:24:03;;;;;;;15.40;5.25;;;3.80;99.90;;;;;;5039814;28;20033;-39
2024/02/27 07:26:28;;;;;;;10.43;4.45;;;3.90;99.90;;;;;;5050765;28;20535;-45
2024/02/27 07:28:54;;;;;;;11.15;4.88;;;3.90;99.90;;;;;;5053094;28;20063;-39
2024/02/27 07:31:21;;;;;;;14.00;6.22;;;4.00;99.90;;;;;;5052588;28;20021;-39
2024/02/27 07:33:46;;;;;;;8.85;4.55;;;4.10;99.90;;;;;;5044226;28;20029;-41
2024/02/27 07:36:13;;;;;;;9.80;4.97;;;4.10;99.90;;;;;;5032927;28;20501;-42
2024/02/27 07:38:38;;;;;;;12.75;5.13;;;4.20;99.90;;;;;;5039515;28;20288;-42
2024/02/27 07:41:04;;;;;;;11.15;5.05;;;4.20;99.90;;;;;;5049052;28;20021;-40
2024/02/27 07:43:30;;;;;;;16.50;5.82;;;4.20;99.90;;;;;;5052729;28;20469;-41
2024/02/27 07:45:56;;;;;;;20.17;5.05;;;4.30;99.90;;;;;;5051366;28;20027;-40
2024/02/27 07:48:22;;;;;;;13.25;4.88;;;4.40;99.90;;;;;;5037409;28;20053;-40
2024/02/27 07:50:47;;;;;;;10.88;4.95;;;4.40;99.90;;;;;;5032312;28;20497;-43
2024/02/27 07:53:13;;;;;;;11.27;5.13;;;4.50;99.90;;;;;;5032353;28;20029;-42
2024/02/27 07:55:41;;;;;;;16.35;5.40;;;4.50;99.90;;;;;;5033159;28;20556;-41
2024/02/27 07:58:08;;;;;;;10.82;5.35;;;4.70;99.90;;;;;;5032593;28;20520;-43
2024/02/27 08:00:34;;;;;;;9.87;4.83;;;4.70;99.90;;;;;;5047360;28;20420;-39
2024/02/27 08:02:59;;;;;;;18.48;5.53;;;4.70;99.90;;;;;;5050646;28;20029;-39
2024/02/27 08:05:28;;;;;;;12.48;5.28;;;4.80;99.90;;;;;;5047612;28;20025;-40
2024/02/27 08:07:53;;;;;;;10.38;4.18;;;4.90;99.90;;;;;;5052189;28;20470;-40
2024/02/27 08:10:20;;;;;;;13.45;5.15;;;5.00;99.90;;;;;;5052540;28;20032;-39
2024/02/27 08:12:47;;;;;;;12.68;4.70;;;5.00;99.90;;;;;;5044289;28;20266;-40
2024/02/27 08:15:15;;;;;;;14.32;5.10;;;5.00;99.90;;;;;;5032867;28;20030;-40
2024/02/27 08:17:41;;;;;;;11.82;5.22;;;5.00;99.90;;;;;;5032511;28;20371;-41
2024/02/27 08:20:07;;;;;;;8.32;4.22;;;5.00;99.90;;;;;;5032282;28;20039;-42
2024/02/27 08:22:33;;;;;;;11.48;4.68;;;5.10;99.90;;;;;;5033420;28;20513;-41
2024/02/27 08:24:59;;;;;;;12.43;4.68;;;5.30;99.90;;;;;;5034884;28;20030;-40
2024/02/27 08:27:24;;;;;;;12.63;4.10;;;5.50;99.90;;;;;;5050404;28;20048;-41
2024/02/27 08:29:50;;;;;;;11.43;4.18;;;5.60;99.90;;;;;;5051278;28;20029;-40
2024/02/27 08:32:17;;;;;;;10.00;4.32;;;5.80;99.90;;;;;;5048759;28;20083;-42
2024/02/27 08:34:43;;;;;;;10.88;3.97;;;5.90;99.90;;;;;;5036234;28;20440;-41
2024/02/27 08:37:08;;;;;;;6.20;4.25;;;6.10;99.90;;;;;;5036110;28;20037;-42
2024/02/27 08:39:34;;;;;;;6.43;4.00;;;6.10;99.90;;;;;;5036088;28;20041;-40
2024/02/27 08:42:00;;;;;;;8.15;3.65;;;6.10;99.90;;;;;;5053381;28;20389;-46
2024/02/27 08:44:26;;;;;;;9.75;4.32;;;6.10;99.90;;;;;;5055815;28;20040;-49
2024/02/27 08:46:51;;;;;;;8.55;3.90;;;6.00;99.90;;;;;;5053631;28;20025;-45
2024/02/27 08:49:17;;;;;;;11.50;4.18;;;6.10;99.90;;;;;;5035910;28;20044;-41
2024/02/27 08:51:44;;;;;;;6.90;3.88;;;6.10;99.90;;;;;;5036102;28;20018;-40
2024/02/27 08:54:10;;;;;;;8.30;4.00;;;6.10;99.90;;;;;;5034641;28;20493;-42
2024/02/27 08:56:39;;;;;;;11.73;3.92;;;6.00;99.90;;;;;;5035833;28;20026;-38
2024/02/27 08:59:08;;;;;;;8.63;3.20;;;6.10;99.90;;;;;;5035602;28;20477;-44
2024/02/27 09:01:33;;;;;;;9.95;3.25;;;6.20;99.90;;;;;;5038426;28;20052;-40
2024/02/27 09:03:59;;;;;;;6.50;3.45;;;6.30;99.90;;;;;;5052960;28;20558;-44
2024/02/27 09:06:25;;;;;;;6.38;3.22;;;6.30;99.90;;;;;;5035397;28;20367;-43
2024/02/27 09:08:50;;;;;;;6.53;3.25;;;6.30;99.90;;;;;;5043427;28;20385;-42
2024/02/27 09:11:16;;;;;;;6.25;3.47;;;6.30;99.90;;;;;;5051940;28;20037;-42
2024/02/27 09:13:42;;;;;;;7.93;4.35;;;6.30;99.90;;;;;;5035327;28;20025;-42
2024/02/27 09:16:07;;;;;;;10.35;3.90;;;6.40;99.90;;;;;;5035344;28;20057;-41
2024/02/27 09:18:34;;;;;;;7.05;4.10;;;6.40;99.90;;;;;;5049571;28;20038;-43
2024/02/27 09:21:01;;;;;;;11.27;3.55;;;6.40;99.90;;;;;;5035842;28;20029;-43
2024/02/27 09:23:27;;;;;;;6.95;3.47;;;6.50;99.90;;;;;;5044594;28;20553;-40
2024/02/27 09:25:53;;;;;;;8.65;4.07;;;6.50;99.90;;;;;;5037184;28;20616;-46
2024/02/27 09:28:19;;;;;;;7.75;3.63;;;6.60;99.90;;;;;;5037061;28;20029;-43
2024/02/27 09:30:44;;;;;;;12.73;4.25;;;6.70;99.90;;;;;;5050496;28;20082;-39
2024/02/27 09:33:10;;;;;;;7.93;3.40;;;6.90;99.90;;;;;;5035024;28;20033;-53
2024/02/27 09:35:35;;;;;;;8.02;3.92;;;7.00;99.90;;;;;;5037432;28;20554;-55
2024/02/27 09:38:02;;;;;;;12.32;3.90;;;7.10;99.90;;;;;;5053717;28;20029;-54
2024/02/27 09:40:28;;;;;;;8.48;3.47;;;7.00;99.90;;;;;;5050366;28;20033;-56
2024/02/27 09:42:59;;;;;;;9.15;4.10;;;7.00;99.90;;;;;;5034583;28;20029;-54
2024/02/27 09:45:30;;;;;;;6.68;3.25;;;7.10;99.90;;;;;;5035067;28;20493;-53
2024/02/27 09:48:00;;;;;;;9.13;4.50;;;7.20;99.90;;;;;;5034830;28;20026;-55
2024/02/27 09:50:27;;;;;;;5.95;3.97;;;7.20;99.90;;;;;;5037015;28;20489;-55
2024/02/27 09:52:56;;;;;;;8.63;4.65;;;7.10;99.90;;;;;;5054642;28;20052;-54
2024/02/27 09:55:21;;;;;;;7.55;3.42;;;7.00;99.90;;;;;;5052904;28;20477;-53
2024/02/27 09:57:51;;;;;;;9.75;4.22;;;7.00;99.90;;;;;;5054773;28;20019;-55
2024/02/27 10:00:17;;;;;;;6.70;3.40;;;7.20;99.90;;;;;;5053908;28;20037;-56
2024/02/27 10:02:47;;;;;;;5.65;3.70;;;7.30;99.90;;;;;;5035499;28;20474;-55
2024/02/27 10:05:17;;;;;;;9.60;4.22;;;7.50;99.90;;;;;;5035497;28;20021;-54
2024/02/27 10:07:54;;;;;;;7.13;4.20;;;7.40;99.90;;;;;;5035623;28;20482;-54
2024/02/27 10:10:19;;;;;;;6.82;4.20;;;7.40;99.90;;;;;;5034359;28;20029;-54
2024/02/27 10:12:46;;;;;;;5.53;3.80;;;7.40;99.90;;;;;;5050246;28;20029;-55
2024/02/27 10:15:12;;;;;;;8.45;3.63;;;7.60;99.90;;;;;;5045892;28;20478;-55
2024/02/27 10:17:38;;;;;;;8.02;4.25;;;7.60;99.90;;;;;;5049327;28;20103;-51
2024/02/27 10:20:10;;;;;;;7.00;4.28;;;7.70;99.90;;;;;;5052584;28;20021;-54
2024/02/27 10:22:37;;;;;;;10.90;5.10;;;7.80;99.90;;;;;;5047850;28;20398;-55
2024/02/27 10:25:05;;;;;;;8.70;3.80;;;7.90;99.90;;;;;;5044451;28;20025;-52
2024/02/27 10:27:33;;;;;;;7.95;4.45;;;7.80;99.90;;;;;;5033716;28;20529;-54
2024/02/27 10:29:59;;;;;;;7.50;4.57;;;7.60;99.90;;;;;;5034376;28;20068;-54
2024/02/27 10:32:25;;;;;;;9.38;3.65;;;7.60;99.90;;;;;;5033892;28;20152;-52
2024/02/27 10:34:54;;;;;;;6.05;3.33;;;7.60;99.90;;;;;;5033808;28;20067;-52
2024/02/27 10:37:24;;;;;;;7.72;3.80;;;7.60;99.90;;;;;;5052630;28;20138;-55
2024/02/27 10:39:50;;;;;;;6.50;3.65;;;7.70;99.90;;;;;;5049691;28;20029;-54
2024/02/27 10:42:16;;;;;;;6.38;3.88;;;7.80;99.90;;;;;;5033693;28;20485;-55
2024/02/27 10:44:42;;;;;;;6.78;3.85;;;7.90;99.90;;;;;;5033901;28;20029;-55
2024/02/27 10:47:08;;;;;;;8.07;3.97;;;7.90;99.90;;;;;;5032674;28;20112;-56
2024/02/27 10:49:37;;;;;;;6.65;4.10;;;7.90;99.90;;;;;;5034209;28;20025;-55
2024/02/27 10:52:03;;;;;;;11.30;4.60;;;8.00;99.90;;;;;;5049590;28;20035;-54
2024/02/27 10:54:31;;;;;;;12.18;4.35;;;8.00;99.90;;;;;;5053213;28;20083;-54
2024/02/27 10:56:57;;;;;;;7.07;3.53;;;8.00;99.90;;;;;;5033985;28;20033;-55
2024/02/27 10:59:27;;;;;;;9.43;4.25;;;8.00;99.90;;;;;;5033995;28;20541;-55
2024/02/27 11:01:54;;;;;;;7.40;4.60;;;8.10;99.90;;;;;;5052068;28;20032;-55
2024/02/27 11:04:27;;;;;;;6.60;3.78;;;8.20;99.90;;;;;;5053244;28;20033;-55
2024/02/27 11:06:57;;;;;;;11.70;4.55;;;8.30;99.90;;;;;;5053250;28;20033;-54
2024/02/27 11:09:27;;;;;;;6.22;3.55;;;8.30;99.90;;;;;;5036580;28;20517;-56
2024/02/27 11:11:59;;;;;;;11.27;3.38;;;8.40;99.90;;;;;;5033115;28;20029;-55
2024/02/27 11:14:25;;;;;;;6.95;3.88;;;8.40;99.90;;;;;;5037601;28;20051;-56
2024/02/27 11:17:08;;;;;;;9.05;4.18;;;8.50;99.90;;;;;;5053265;28;20465;-56
2024/02/27 11:19:39;;;;;;;6.05;3.42;;;8.50;99.90;;;;;;5052450;28;20486;-58
2024/02/27 11:22:06;;;;;;;6.20;4.22;;;8.50;99.90;;;;;;5034483;28;20486;-54
2024/02/27 11:24:32;;;;;;;7.22;3.70;;;8.60;99.90;;;;;;5032743;28;20025;-56
2024/02/27 11:26:58;;;;;;;5.78;3.30;;;8.60;99.90;;;;;;5031474;28;20050;-56
2024/02/27 11:29:24;;;;;;;8.18;3.90;;;8.60;99.90;;;;;;5035029;28;20088;-56
2024/02/27 11:31:50;;;;;;;5.90;4.22;;;8.60;99.90;;;;;;5053128;28;20029;-53
2024/02/27 11:34:25;;;;;;;10.20;3.78;;;8.70;99.90;;;;;;5052749;28;20116;-54
2024/02/27 11:37:07;;;;;;;6.90;3.85;;;8.90;99.90;;;;;;5051895;28;20055;-54
2024/02/27 11:39:32;;;;;;;6.47;3.95;;;8.90;99.90;;;;;;5047110;28;20040;-53
2024/02/27 11:41:58;;;;;;;7.80;3.38;;;8.90;99.90;;;;;;5032441;28;20025;-54
2024/02/27 11:44:23;;;;;;;6.72;3.70;;;9.00;99.90;;;;;;5036622;28;20044;-55
2024/02/27 11:46:53;;;;;;;7.70;4.03;;;9.00;99.90;;;;;;5051825;28;20075;-54
2024/02/27 11:49:43;;;;;;;8.52;4.00;;;9.00;99.90;;;;;;5047788;28;20029;-55
2024/02/27 11:52:09;;;;;;;4.47;3.58;;;9.20;99.90;;;;;;5050368;28;20059;-44
2024/02/27 11:54:35;;;;;;;6.18;4.03;;;9.20;99.90;;;;;;5051728;28;20033;-55
2024/02/27 11:57:04;;;;;;;6.00;3.55;;;9.10;99.90;;;;;;5052405;28;20044;-54
2024/02/27 11:59:30;;;;;;;5.35;3.25;;;9.30;99.90;;;;;;5051387;28;20075;-56
2024/02/27 12:02:04;;;;;;;6.10;3.80;;;9.40;99.90;;;;;;5052474;28;20033;-53
2024/02/27 12:04:30;;;;;;;9.57;3.42;;;9.40;99.90;;;;;;5052324;28;20029;-53
2024/02/27 12:06:56;;;;;;;7.03;3.45;;;9.50;99.90;;;;;;5052778;28;20618;-54
2024/02/27 12:09:28;;;;;;;6.80;2.72;;;9.60;99.90;;;;;;5056062;28;20031;-54
2024/02/27 12:11:54;;;;;;;5.15;3.95;;;9.70;99.90;;;;;;5055711;28;20021;-55
2024/02/27 12:14:20;;;;;;;6.72;3.58;;;9.80;99.90;;;;;;5055673;28;20036;-54
2024/02/27 12:16:46;;;;;;;5.00;3.50;;;9.80;99.90;;;;;;5056701;28;20104;-55
2024/02/27 12:19:13;;;;;;;5.40;3.75;;;9.90;99.90;;;;;;5045857;28;20025;-55
2024/02/27 12:21:39;;;;;;;5.30;3.50;;;9.90;99.90;;;;;;5036307;28;20088;-55
2024/02/27 12:24:16;;;;;;;11.13;4.20;;;10.10;99.90;;;;;;5050899;28;20033;-55
2024/02/27 12:26:43;;;;;;;9.17;4.27;;;10.20;99.90;;;;;;5036149;28;20053;-55
2024/02/27 12:29:09;;;;;;;6.55;3.10;;;10.20;99.90;;;;;;5044646;28;20287;-54
2024/02/27 12:31:36;;;;;;;5.20;3.35;;;10.20;99.90;;;;;;5036167;28;20068;-53
2024/02/27 12:34:03;;;;;;;5.45;3.88;;;10.20;99.90;;;;;;5036224;28;20552;-55
2024/02/27 12:36:29;;;;;;;4.65;3.67;;;10.20;99.90;;;;;;5037103;28;20056;-55
2024/02/27 12:38:55;;;;;;;12.00;3.70;;;10.20;99.90;;;;;;5043530;28;20829;-55
2024/02/27 12:41:22;;;;;;;3.42;3.08;;;10.10;99.90;;;;;;5044865;28;20489;-55
2024/02/27 12:43:48;;;;;;;5.38;3.47;;;10.10;99.90;;;;;;5053967;28;20028;-55
2024/02/27 12:46:16;;;;;;;5.78;3.50;;;10.10;99.90;;;;;;5044176;28;20128;-56
2024/02/27 12:48:41;;;;;;;;;;;9.80;99.90;;;;;;5050908;28;20032;-54
2024/02/27 12:51:07;;;;;;;7.57;3.45;;;9.70;99.90;;;;;;5052410;28;19917;-46
2024/02/27 12:53:33;;;;;;;4.53;3.15;;;9.80;99.90;;;;;;5049262;28;20059;-40
2024/02/27 12:55:59;;;;;;;3.72;2.67;;;9.90;99.90;;;;;;5036153;28;20499;-41